Time;durP1;ratioP1;P1;durP2;ratioP2;P2;SDS_P1;SDS_P2;PMS_P1;PMS_P2;Temp;Humidity;BMP_temperature;BMP_pressure;BME280_temperature;BME280_humidity;BME280_pressure;Samples;Min_cycle;Max_cycle;Signal;HPM_P1;HPM_P2
2021/09/04 00:00:48;;;;;;;2.55;2.10;;;20.20;99.90;;;;;;5031503;28;20630;-76
2021/09/04 00:03:15;;;;;;;2.55;2.35;;;20.20;99.90;;;;;;5031598;28;20207;-75
2021/09/04 00:05:42;;;;;;;2.85;2.35;;;20.20;99.90;;;;;;5031042;28;20222;-75
2021/09/04 00:08:09;;;;;;;3.28;2.42;;;20.30;99.90;;;;;;5031512;28;20214;-75
2021/09/04 00:10:36;;;;;;;2.78;2.42;;;20.30;99.90;;;;;;5030659;28;20261;-75
2021/09/04 00:13:03;;;;;;;3.38;2.28;;;20.30;99.90;;;;;;5031506;28;20503;-74
2021/09/04 00:15:31;;;;;;;2.80;2.42;;;20.20;99.90;;;;;;5030625;28;20257;-75
2021/09/04 00:17:59;;;;;;;3.25;2.42;;;20.10;99.90;;;;;;5031377;28;20211;-74
2021/09/04 00:20:25;;;;;;;3.35;3.05;;;20.20;99.90;;;;;;5030683;28;20258;-72
2021/09/04 00:22:52;;;;;;;4.15;2.83;;;20.10;99.90;;;;;;5031210;28;20203;-77
2021/09/04 00:25:19;;;;;;;2.60;2.30;;;20.00;99.90;;;;;;5030834;28;20270;-76
2021/09/04 00:27:47;;;;;;;4.90;2.38;;;20.00;99.90;;;;;;5030935;28;20204;-74
2021/09/04 00:30:14;;;;;;;3.72;3.22;;;20.10;99.90;;;;;;5031237;28;20211;-74
2021/09/04 00:32:42;;;;;;;3.55;3.08;;;20.10;99.90;;;;;;5030853;28;20234;-74
2021/09/04 00:35:10;;;;;;;3.90;3.17;;;20.00;99.90;;;;;;5030260;28;20207;-74
2021/09/04 00:37:37;;;;;;;2.50;2.30;;;19.90;99.90;;;;;;5030322;28;20243;-72
2021/09/04 00:40:05;;;;;;;4.70;3.08;;;20.00;99.90;;;;;;5030877;28;20270;-73
2021/09/04 00:42:32;;;;;;;5.40;3.25;;;19.90;99.90;;;;;;5030600;28;20241;-75
2021/09/04 00:44:59;;;;;;;3.40;3.10;;;19.90;99.90;;;;;;5030524;28;20741;-75
2021/09/04 00:47:26;;;;;;;3.53;3.22;;;19.80;99.90;;;;;;5030520;28;20265;-76
2021/09/04 00:49:54;;;;;;;4.07;3.42;;;19.80;99.90;;;;;;5030088;28;21151;-76
2021/09/04 00:52:21;;;;;;;7.53;4.00;;;19.80;99.90;;;;;;5030586;28;20262;-76
2021/09/04 00:54:48;;;;;;;7.80;3.40;;;19.90;99.90;;;;;;5030646;28;20207;-76
2021/09/04 00:57:15;;;;;;;3.90;3.30;;;19.80;99.90;;;;;;5030373;28;20646;-76
2021/09/04 00:59:42;;;;;;;5.20;3.75;;;19.80;99.90;;;;;;5030749;28;20269;-76
2021/09/04 01:02:09;;;;;;;4.95;3.80;;;19.90;99.90;;;;;;5030734;28;20207;-77
2021/09/04 01:04:36;;;;;;;4.97;3.70;;;20.00;99.90;;;;;;5030175;28;20719;-77
2021/09/04 01:07:05;;;;;;;4.38;3.40;;;20.00;99.90;;;;;;5030544;28;20297;-79
2021/09/04 01:09:32;;;;;;;5.00;3.30;;;19.90;99.90;;;;;;5030242;28;20215;-78
2021/09/04 01:11:59;;;;;;;3.97;3.65;;;19.80;99.90;;;;;;5030520;28;20203;-75
2021/09/04 01:14:26;;;;;;;5.60;4.13;;;19.70;99.90;;;;;;5029828;28;20207;-76
2021/09/04 01:16:53;;;;;;;3.83;3.47;;;19.70;99.90;;;;;;5030048;28;20231;-79
2021/09/04 01:19:20;;;;;;;3.85;3.55;;;19.60;99.90;;;;;;5029699;28;20199;-79
2021/09/04 01:21:47;;;;;;;4.22;3.63;;;19.60;99.90;;;;;;5030643;28;20249;-77
2021/09/04 01:24:15;;;;;;;5.10;4.20;;;19.50;99.90;;;;;;5030217;28;20203;-76
2021/09/04 01:26:44;;;;;;;7.55;3.92;;;19.60;99.90;;;;;;5030808;28;20211;-79
2021/09/04 01:29:11;;;;;;;4.85;4.22;;;19.60;99.90;;;;;;5030479;28;20262;-78
2021/09/04 01:31:39;;;;;;;5.95;3.97;;;19.70;99.90;;;;;;5030206;28;20211;-76
2021/09/04 01:34:06;;;;;;;5.45;4.28;;;19.70;99.90;;;;;;5029990;28;20298;-75
2021/09/04 01:36:35;;;;;;;3.97;3.42;;;19.60;99.90;;;;;;5029814;28;20238;-75
2021/09/04 01:39:03;;;;;;;4.95;3.67;;;19.60;99.90;;;;;;5030201;28;20207;-75
2021/09/04 01:41:30;;;;;;;4.47;4.07;;;19.70;99.90;;;;;;5029668;28;20207;-77
2021/09/04 01:43:59;;;;;;;5.55;4.05;;;19.80;99.90;;;;;;5029897;28;20211;-78
2021/09/04 01:46:26;;;;;;;5.95;4.03;;;19.70;99.90;;;;;;5030025;28;20266;-76
2021/09/04 01:48:54;;;;;;;4.97;4.13;;;19.60;99.90;;;;;;5034006;28;20213;-78
2021/09/04 01:51:21;;;;;;;6.32;4.13;;;19.60;99.90;;;;;;5033505;28;20265;-75
2021/09/04 01:53:48;;;;;;;4.25;3.92;;;19.70;99.90;;;;;;5034143;28;20269;-79
2021/09/04 01:56:15;;;;;;;5.07;4.05;;;19.50;99.90;;;;;;5032187;28;20215;-76
2021/09/04 01:58:42;;;;;;;4.30;3.67;;;19.60;99.90;;;;;;5033643;28;20273;-77
2021/09/04 02:01:10;;;;;;;6.05;4.28;;;19.60;99.90;;;;;;5033867;28;20741;-76
2021/09/04 02:03:37;;;;;;;4.40;3.85;;;19.60;99.90;;;;;;5032772;28;20686;-76
2021/09/04 02:06:05;;;;;;;3.90;3.50;;;19.40;99.90;;;;;;5033718;28;20277;-75
2021/09/04 02:08:32;;;;;;;5.05;3.67;;;19.50;99.90;;;;;;5033479;28;20211;-78
2021/09/04 02:10:59;;;;;;;6.18;3.50;;;19.40;99.90;;;;;;5033337;28;20208;-79
2021/09/04 02:13:27;;;;;;;4.07;3.55;;;19.40;99.90;;;;;;5032898;28;20203;-75
2021/09/04 02:15:55;;;;;;;5.25;3.47;;;19.40;99.90;;;;;;5033563;28;20207;-75
2021/09/04 02:18:23;;;;;;;4.40;4.00;;;19.50;99.90;;;;;;5033042;28;20289;-74
2021/09/04 02:20:50;;;;;;;4.20;3.47;;;19.40;99.90;;;;;;5033476;28;20204;-75
2021/09/04 02:23:18;;;;;;;4.05;3.75;;;19.50;99.90;;;;;;5032631;28;20671;-75
2021/09/04 02:25:45;;;;;;;8.45;3.88;;;19.40;99.90;;;;;;5033275;28;20265;-76
2021/09/04 02:28:14;;;;;;;3.80;3.50;;;19.30;99.90;;;;;;5033600;28;20211;-75
2021/09/04 02:30:41;;;;;;;4.82;3.60;;;19.30;99.90;;;;;;5033042;28;20207;-75
2021/09/04 02:33:10;;;;;;;4.75;3.63;;;19.30;99.90;;;;;;5033647;28;20219;-75
2021/09/04 02:35:38;;;;;;;4.63;3.95;;;19.20;99.90;;;;;;5032800;28;20668;-74
2021/09/04 02:38:05;;;;;;;4.45;3.97;;;19.30;99.90;;;;;;5032986;28;20653;-76
2021/09/04 02:40:32;;;;;;;4.72;4.28;;;19.40;99.90;;;;;;5032574;28;20289;-74
2021/09/04 02:42:59;;;;;;;5.93;4.00;;;19.50;99.90;;;;;;5033009;28;20208;-74
2021/09/04 02:45:26;;;;;;;4.63;3.45;;;19.40;99.90;;;;;;5032392;28;20266;-74
2021/09/04 02:47:53;;;;;;;5.95;4.45;;;19.40;99.90;;;;;;5033147;28;20234;-75
2021/09/04 02:50:20;;;;;;;5.28;4.78;;;19.30;99.90;;;;;;5032425;28;20207;-77
2021/09/04 02:52:48;;;;;;;5.95;4.53;;;19.30;99.90;;;;;;5032776;28;20203;-77
2021/09/04 02:55:15;;;;;;;4.20;3.67;;;19.40;99.90;;;;;;5032788;28;20267;-78
2021/09/04 02:57:42;;;;;;;6.35;4.72;;;19.40;99.90;;;;;;5032374;28;20658;-77
2021/09/04 03:00:11;;;;;;;7.45;5.10;;;19.50;99.90;;;;;;5032219;28;20211;-78
2021/09/04 03:02:38;;;;;;;5.18;4.65;;;19.40;99.90;;;;;;5032046;28;20207;-77
2021/09/04 03:05:05;;;;;;;10.45;4.15;;;19.40;99.90;;;;;;5032387;28;20628;-74
2021/09/04 03:07:32;;;;;;;6.03;4.38;;;19.50;99.90;;;;;;5032209;28;20215;-74
2021/09/04 03:10:01;;;;;;;5.53;4.45;;;19.70;99.90;;;;;;5032809;28;20207;-75
2021/09/04 03:12:28;;;;;;;4.85;4.38;;;19.60;99.90;;;;;;5032037;28;20211;-74
2021/09/04 03:14:54;;;;;;;4.80;4.32;;;19.70;99.90;;;;;;5036999;28;20211;-74
2021/09/04 03:17:21;;;;;;;4.90;4.40;;;19.70;99.90;;;;;;5040458;28;20270;-73
2021/09/04 03:19:48;;;;;;;6.10;5.15;;;19.50;99.90;;;;;;5031992;28;20212;-74
2021/09/04 03:22:15;;;;;;;6.30;4.25;;;19.50;99.90;;;;;;5032323;28;20619;-73
2021/09/04 03:24:42;;;;;;;9.88;5.10;;;19.60;99.90;;;;;;5032585;28;20270;-74
2021/09/04 03:27:11;;;;;;;7.43;5.85;;;19.70;99.90;;;;;;5032622;28;20254;-74
2021/09/04 03:29:38;;;;;;;5.05;4.65;;;19.50;99.90;;;;;;5031294;28;20266;-73
2021/09/04 03:32:05;;;;;;;7.00;5.45;;;19.60;99.90;;;;;;5031859;28;20568;-73
2021/09/04 03:34:32;;;;;;;8.75;5.28;;;19.70;99.90;;;;;;5031640;28;20278;-74
2021/09/04 03:36:59;;;;;;;5.78;5.22;;;19.50;99.90;;;;;;5031463;28;20274;-74
2021/09/04 03:39:26;;;;;;;5.85;4.97;;;19.60;99.90;;;;;;5031511;28;20215;-73
2021/09/04 03:41:53;;;;;;;7.00;5.60;;;19.70;99.90;;;;;;5031586;28;20204;-72
2021/09/04 03:44:21;;;;;;;10.30;5.82;;;19.70;99.90;;;;;;5031149;28;20234;-74
2021/09/04 03:46:48;;;;;;;7.97;6.00;;;19.70;99.90;;;;;;5031600;28;20316;-74
2021/09/04 03:49:15;;;;;;;8.88;5.75;;;19.70;99.90;;;;;;5031783;28;20628;-73
2021/09/04 03:51:42;;;;;;;7.78;6.30;;;19.80;99.90;;;;;;5032240;28;20204;-74
2021/09/04 03:54:09;;;;;;;7.97;5.40;;;19.80;99.90;;;;;;5018225;28;20204;-74
2021/09/04 03:56:36;;;;;;;7.35;6.65;;;19.70;99.90;;;;;;5031130;28;20653;-73
2021/09/04 03:59:03;;;;;;;8.10;6.65;;;19.70;99.90;;;;;;5031060;28;20211;-74
2021/09/04 04:01:32;;;;;;;6.63;5.88;;;19.60;99.90;;;;;;5031354;28;20273;-73
2021/09/04 04:03:59;;;;;;;7.25;5.30;;;19.60;99.90;;;;;;5031181;28;20629;-74
2021/09/04 04:06:26;;;;;;;5.80;5.15;;;19.70;99.90;;;;;;5030771;28;20733;-73
2021/09/04 04:08:54;;;;;;;6.18;5.68;;;19.80;99.90;;;;;;5031545;28;20215;-74
2021/09/04 04:11:21;;;;;;;5.78;5.20;;;19.90;99.90;;;;;;5030626;28;20207;-73
2021/09/04 04:13:48;;;;;;;10.82;5.70;;;19.90;99.90;;;;;;5030899;28;20207;-72
2021/09/04 04:16:16;;;;;;;5.68;5.13;;;19.90;99.90;;;;;;5030971;28;20212;-73
2021/09/04 04:18:44;;;;;;;6.13;5.57;;;19.90;99.90;;;;;;5031743;28;20308;-73
2021/09/04 04:21:11;;;;;;;5.38;4.88;;;19.90;99.90;;;;;;5031481;28;20262;-73
2021/09/04 04:23:38;;;;;;;7.35;4.95;;;19.90;99.90;;;;;;5031237;28;20211;-74
2021/09/04 04:26:05;;;;;;;7.13;4.70;;;19.70;99.90;;;;;;5031037;28;20211;-72
2021/09/04 04:28:32;;;;;;;6.60;5.15;;;19.70;99.90;;;;;;5030214;28;20647;-73
2021/09/04 04:30:59;;;;;;;5.65;5.15;;;19.70;99.90;;;;;;5031126;28;20219;-74
2021/09/04 04:33:26;;;;;;;6.68;5.90;;;19.70;99.90;;;;;;5030320;28;20208;-71
2021/09/04 04:35:54;;;;;;;6.28;5.68;;;19.60;99.90;;;;;;5030903;28;20265;-74
2021/09/04 04:38:21;;;;;;;6.10;5.50;;;19.70;99.90;;;;;;5030073;28;20299;-74
2021/09/04 04:40:48;;;;;;;6.00;5.40;;;19.70;99.90;;;;;;5038986;28;20207;-74
2021/09/04 04:43:15;;;;;;;7.68;6.97;;;19.50;99.90;;;;;;5035895;28;20265;-72
2021/09/04 04:45:42;;;;;;;6.32;5.72;;;19.30;99.90;;;;;;5031517;28;20229;-73
2021/09/04 04:48:09;;;;;;;6.07;5.53;;;19.40;99.90;;;;;;5030908;28;20636;-73
2021/09/04 04:50:36;;;;;;;7.43;6.65;;;19.60;99.90;;;;;;5030200;28;20261;-72
2021/09/04 04:53:05;;;;;;;6.20;5.60;;;19.50;99.90;;;;;;5030327;28;20682;-73
2021/09/04 04:55:32;;;;;;;6.30;5.57;;;19.40;99.90;;;;;;5029669;28;20215;-73
2021/09/04 04:57:59;;;;;;;6.55;5.57;;;19.40;99.90;;;;;;5030734;28;20231;-73
2021/09/04 05:00:26;;;;;;;6.22;5.20;;;19.60;99.90;;;;;;5029943;28;20744;-73
2021/09/04 05:02:53;;;;;;;7.82;7.03;;;19.60;99.90;;;;;;5028854;28;20199;-73
2021/09/04 05:05:20;;;;;;;6.53;5.88;;;19.70;99.90;;;;;;5025606;28;20200;-73
2021/09/04 05:07:46;;;;;;;6.90;6.22;;;19.70;99.90;;;;;;5030386;28;20277;-75
2021/09/04 05:10:15;;;;;;;6.28;5.22;;;19.70;99.90;;;;;;5030411;28;20208;-73
2021/09/04 05:12:42;;;;;;;5.95;5.45;;;19.70;99.90;;;;;;5030262;28;20211;-73
2021/09/04 05:15:10;;;;;;;6.45;5.85;;;19.70;99.90;;;;;;5030824;28;20659;-76
2021/09/04 05:17:37;;;;;;;6.30;5.70;;;19.70;99.90;;;;;;5030015;28;20231;-73
2021/09/04 05:20:05;;;;;;;6.57;5.78;;;19.70;99.90;;;;;;5027779;28;20257;-75
2021/09/04 05:22:32;;;;;;;6.50;5.68;;;19.80;99.90;;;;;;5032143;28;20213;-75
2021/09/04 05:24:59;;;;;;;5.40;4.95;;;19.80;99.90;;;;;;5032748;28;20207;-76
2021/09/04 05:27:28;;;;;;;10.20;5.88;;;19.80;99.90;;;;;;5034416;28;20203;-74
2021/09/04 05:29:55;;;;;;;6.80;6.13;;;19.90;99.90;;;;;;5026104;28;20680;-74
2021/09/04 05:32:23;;;;;;;6.25;4.97;;;19.80;99.90;;;;;;5032624;28;20208;-74
2021/09/04 05:34:51;;;;;;;7.60;5.93;;;19.80;99.90;;;;;;5033993;28;20675;-72
2021/09/04 05:37:18;;;;;;;9.00;6.72;;;19.70;99.90;;;;;;5033495;28;20215;-72
2021/09/04 05:39:46;;;;;;;7.78;6.40;;;19.70;99.90;;;;;;5033997;28;20254;-73
2021/09/04 05:42:13;;;;;;;6.85;5.70;;;19.80;99.90;;;;;;5034554;28;20634;-73
2021/09/04 05:44:41;;;;;;;10.13;5.55;;;19.70;99.90;;;;;;5033982;28;20215;-74
2021/09/04 05:47:08;;;;;;;5.15;4.72;;;19.90;99.90;;;;;;5032902;28;20207;-77
2021/09/04 05:49:35;;;;;;;7.70;6.70;;;19.90;99.90;;;;;;5030740;28;20211;-78
2021/09/04 05:52:02;;;;;;;7.43;6.63;;;20.10;99.90;;;;;;5026117;28;20265;-79
2021/09/04 05:54:29;;;;;;;5.85;5.38;;;20.10;99.90;;;;;;5019270;28;20212;-78
2021/09/04 05:56:56;;;;;;;5.13;4.65;;;20.10;99.90;;;;;;5014485;28;20277;-78
2021/09/04 05:59:23;;;;;;;5.50;5.10;;;20.20;99.90;;;;;;5022264;28;20282;-73
2021/09/04 06:01:52;;;;;;;8.88;7.30;;;20.30;99.90;;;;;;5016781;28;20208;-72
2021/09/04 06:04:19;;;;;;;14.50;5.55;;;20.40;99.90;;;;;;5015694;28;20256;-71
2021/09/04 06:06:46;;;;;;;5.90;5.50;;;20.40;99.90;;;;;;5012960;28;20235;-72
2021/09/04 06:09:13;;;;;;;7.15;6.55;;;20.40;99.90;;;;;;5017747;28;20204;-72
2021/09/04 06:11:40;;;;;;;5.85;5.45;;;20.50;99.90;;;;;;5025453;28;20700;-72
2021/09/04 06:14:07;;;;;;;8.75;6.40;;;20.30;99.90;;;;;;5014567;28;20209;-72
2021/09/04 06:16:34;;;;;;;6.28;5.70;;;20.30;99.90;;;;;;5015287;28;20208;-71
2021/09/04 06:19:02;;;;;;;6.53;5.93;;;20.40;99.90;;;;;;5013632;28;20305;-70
2021/09/04 06:21:29;;;;;;;8.82;6.60;;;20.40;99.90;;;;;;5014002;28;20200;-72
2021/09/04 06:23:56;;;;;;;6.38;5.70;;;20.40;99.90;;;;;;5011932;28;20258;-73
2021/09/04 06:26:23;;;;;;;6.03;5.38;;;20.40;99.90;;;;;;5011871;28;20733;-75
2021/09/04 06:28:50;;;;;;;7.15;6.00;;;20.30;99.90;;;;;;5020035;28;20733;-73
2021/09/04 06:31:17;;;;;;;5.85;5.35;;;20.40;99.90;;;;;;5012281;28;20671;-74
2021/09/04 06:33:44;;;;;;;6.70;6.10;;;20.50;99.90;;;;;;5013052;28;20209;-76
2021/09/04 06:36:12;;;;;;;6.55;6.05;;;20.60;99.90;;;;;;5025160;28;20230;-73
2021/09/04 06:38:39;;;;;;;5.88;4.88;;;20.70;99.90;;;;;;5032399;28;20235;-74
2021/09/04 06:41:07;;;;;;;6.32;5.75;;;20.80;99.90;;;;;;5033233;28;20285;-75
2021/09/04 06:43:34;;;;;;;6.40;5.80;;;20.80;99.90;;;;;;5027075;28;20227;-73
2021/09/04 06:46:01;;;;;;;7.32;6.28;;;20.70;99.90;;;;;;5029247;28;20259;-74
2021/09/04 06:48:28;;;;;;;6.65;6.00;;;20.80;99.90;;;;;;5032449;28;20203;-74
2021/09/04 06:50:55;;;;;;;7.13;5.63;;;20.90;99.90;;;;;;5032940;28;20659;-74
2021/09/04 06:53:23;;;;;;;7.43;5.47;;;21.00;99.90;;;;;;5032200;28;20204;-74
2021/09/04 06:55:50;;;;;;;6.93;6.25;;;20.90;99.90;;;;;;5023613;28;20577;-73
2021/09/04 06:58:18;;;;;;;6.15;5.65;;;20.90;99.90;;;;;;5031664;28;20227;-73
2021/09/04 07:00:45;;;;;;;5.55;5.05;;;20.90;99.90;;;;;;5031991;28;20207;-74
2021/09/04 07:03:12;;;;;;;6.20;5.60;;;21.00;99.90;;;;;;5032786;28;20269;-74
2021/09/04 07:05:39;;;;;;;7.80;6.07;;;21.00;99.90;;;;;;5032422;28;20212;-74
2021/09/04 07:08:06;;;;;;;6.88;6.18;;;21.00;99.90;;;;;;5024635;28;20204;-73
2021/09/04 07:10:35;;;;;;;6.47;5.50;;;20.90;99.90;;;;;;5011930;28;20263;-74
2021/09/04 07:13:02;;;;;;;7.13;6.45;;;20.80;99.90;;;;;;5030112;28;20253;-74
2021/09/04 07:15:29;;;;;;;8.02;7.22;;;20.80;99.90;;;;;;5031877;28;20258;-74
2021/09/04 07:17:56;;;;;;;6.43;5.85;;;21.00;99.90;;;;;;5032269;28;20631;-74
2021/09/04 07:20:23;;;;;;;6.55;6.05;;;21.30;99.90;;;;;;5031481;28;20207;-75
2021/09/04 07:22:50;;;;;;;6.50;6.00;;;21.20;99.90;;;;;;5031749;28;20257;-74
2021/09/04 07:25:17;;;;;;;8.02;7.38;;;20.80;99.90;;;;;;5032178;28;20249;-74
2021/09/04 07:27:47;;;;;;;8.07;7.28;;;20.60;99.90;;;;;;5031847;28;20208;-74
2021/09/04 07:30:16;;;;;;;9.30;8.00;;;20.70;99.90;;;;;;5032092;28;20231;-73
2021/09/04 07:32:43;;;;;;;7.95;6.32;;;20.70;99.90;;;;;;5032116;28;20204;-74
2021/09/04 07:35:11;;;;;;;6.75;5.70;;;21.00;99.90;;;;;;5031995;28;20203;-74
2021/09/04 07:37:38;;;;;;;5.93;5.43;;;21.20;99.90;;;;;;5031292;28;20674;-74
2021/09/04 07:40:06;;;;;;;6.03;5.53;;;21.30;99.90;;;;;;5031763;28;20231;-75
2021/09/04 07:42:33;;;;;;;6.43;5.93;;;21.20;99.90;;;;;;5031628;28;20305;-75
2021/09/04 07:45:01;;;;;;;5.78;5.28;;;21.40;99.90;;;;;;5031536;28;20277;-75
2021/09/04 07:47:28;;;;;;;6.13;5.63;;;21.60;99.90;;;;;;5031611;28;20230;-75
2021/09/04 07:49:55;;;;;;;6.00;5.32;;;21.80;99.90;;;;;;5031423;28;20329;-76
2021/09/04 07:52:22;;;;;;;6.25;5.65;;;22.00;99.90;;;;;;5031427;28;20212;-76
2021/09/04 07:54:49;;;;;;;6.85;6.20;;;22.20;99.90;;;;;;5039894;28;20199;-75
2021/09/04 07:57:16;;;;;;;6.05;5.22;;;22.10;99.90;;;;;;5031589;28;20199;-75
2021/09/04 07:59:43;;;;;;;8.57;6.43;;;21.90;99.90;;;;;;5031582;28;20231;-75
2021/09/04 08:02:11;;;;;;;6.63;5.47;;;21.80;99.90;;;;;;5031877;28;20208;-76
2021/09/04 08:04:38;;;;;;;7.60;7.00;;;21.60;99.90;;;;;;5031169;28;20261;-75
2021/09/04 08:07:06;;;;;;;7.22;6.53;;;21.60;99.90;;;;;;5031395;28;20216;-76
2021/09/04 08:09:33;;;;;;;8.00;7.35;;;21.50;99.90;;;;;;5031008;28;20269;-75
2021/09/04 08:12:00;;;;;;;7.18;6.50;;;21.60;99.90;;;;;;5027322;28;20257;-74
2021/09/04 08:14:27;;;;;;;10.93;6.82;;;21.60;99.90;;;;;;5029099;28;20207;-73
2021/09/04 08:16:54;;;;;;;6.97;6.38;;;21.60;99.90;;;;;;5031202;28;20257;-73
2021/09/04 08:19:22;;;;;;;6.43;5.82;;;21.60;99.90;;;;;;5025901;28;20294;-73
2021/09/04 08:21:49;;;;;;;5.90;5.40;;;21.80;99.90;;;;;;5018557;28;20207;-74
2021/09/04 08:24:16;;;;;;;6.28;5.68;;;22.20;99.90;;;;;;5030363;28;20212;-74
2021/09/04 08:26:43;;;;;;;7.68;7.03;;;22.30;99.90;;;;;;5016444;28;20262;-72
2021/09/04 08:29:11;;;;;;;6.82;6.30;;;22.50;99.90;;;;;;5015671;28;20307;-73
2021/09/04 08:31:38;;;;;;;6.13;5.55;;;22.50;99.90;;;;;;5018909;28;21420;-73
2021/09/04 08:34:05;;;;;;;6.78;6.20;;;22.40;99.90;;;;;;5018856;28;20208;-71
2021/09/04 08:36:33;;;;;;;7.90;7.18;;;22.20;99.90;;;;;;5017636;28;20220;-72
2021/09/04 08:39:00;;;;;;;7.32;5.68;;;21.90;99.90;;;;;;5022809;28;20749;-76
2021/09/04 08:41:28;;;;;;;6.50;5.90;;;22.20;99.90;;;;;;5012719;28;20672;-75
2021/09/04 08:43:55;;;;;;;5.72;5.22;;;22.70;99.90;;;;;;5030308;28;20748;-76
2021/09/04 08:46:22;;;;;;;5.38;4.93;;;22.80;99.90;;;;;;5024586;28;20738;-74
2021/09/04 08:48:50;;;;;;;5.03;4.63;;;23.30;99.90;;;;;;5028843;28;20305;-76
2021/09/04 08:51:17;;;;;;;6.40;5.00;;;23.60;99.90;;;;;;5029942;28;20207;-74
2021/09/04 08:53:45;;;;;;;5.22;4.72;;;23.50;99.90;;;;;;5030587;28;20203;-76
2021/09/04 08:56:12;;;;;;;7.40;5.50;;;23.70;99.90;;;;;;5030135;28;20203;-75
2021/09/04 08:58:39;;;;;;;5.68;5.18;;;24.10;99.90;;;;;;5030340;28;20230;-76
2021/09/04 09:01:15;;;;;;;5.40;4.90;;;24.40;99.90;;;;;;5028093;28;20211;-75
2021/09/04 09:03:44;;;;;;;5.85;5.38;;;24.00;99.90;;;;;;5025377;28;20247;-75
2021/09/04 09:06:11;;;;;;;5.72;5.32;;;23.70;99.90;;;;;;5029941;28;20292;-75
2021/09/04 09:08:44;;;;;;;5.65;5.15;;;23.60;99.90;;;;;;5030416;28;20207;-75
2021/09/04 09:11:12;;;;;;;5.45;4.88;;;24.10;99.90;;;;;;5030010;28;20242;-74
2021/09/04 09:13:49;;;;;;;5.00;4.60;;;25.30;99.90;;;;;;5030039;28;20211;-75
2021/09/04 09:16:18;;;;;;;7.80;7.00;;;26.80;99.90;;;;;;5029815;28;20210;-73
2021/09/04 09:18:56;;;;;;;5.63;5.13;;;28.20;99.90;;;;;;5029840;28;20293;-75
2021/09/04 09:21:27;;;;;;;5.22;4.72;;;29.10;99.90;;;;;;5030003;28;20203;-75
2021/09/04 09:24:08;;;;;;;4.93;4.47;;;30.80;99.90;;;;;;5030119;28;20207;-75
2021/09/04 09:26:46;;;;;;;4.70;4.30;;;31.00;99.90;;;;;;5026610;28;20872;-74
2021/09/04 09:29:20;;;;;;;5.80;5.30;;;30.90;99.90;;;;;;5024172;28;20203;-75
2021/09/04 09:31:48;;;;;;;4.50;4.20;;;32.30;99.90;;;;;;5021024;28;20254;-77
2021/09/04 09:34:16;;;;;;;4.50;4.20;;;31.40;99.90;;;;;;5030250;28;20199;-77
2021/09/04 09:36:51;;;;;;;6.03;4.80;;;33.10;99.90;;;;;;5029679;28;20678;-75
2021/09/04 09:39:19;;;;;;;4.85;4.45;;;32.30;99.90;;;;;;5030086;28;20226;-74
2021/09/04 09:41:52;;;;;;;5.13;4.72;;;32.30;99.90;;;;;;5030059;28;20418;-74
2021/09/04 09:44:21;;;;;;;5.07;4.68;;;33.00;99.90;;;;;;5024927;28;20198;-74
2021/09/04 09:46:53;;;;;;;5.10;4.65;;;34.20;99.90;;;;;;5029281;28;20257;-73
2021/09/04 09:49:26;;;;;;;5.10;4.70;;;36.30;99.90;;;;;;5029446;28;20210;-74
2021/09/04 09:52:00;;;;;;;5.07;4.68;;;35.10;99.90;;;;;;5028667;28;20265;-74
2021/09/04 09:54:30;;;;;;;4.30;3.53;;;33.30;99.90;;;;;;5018242;28;20630;-74
2021/09/04 09:56:59;;;;;;;4.00;3.70;;;30.00;99.90;;;;;;5029956;28;20293;-73
2021/09/04 09:59:29;;;;;;;4.03;3.72;;;29.60;99.90;;;;;;5029452;28;20226;-73
2021/09/04 10:01:56;;;;;;;4.43;4.03;;;30.60;99.90;;;;;;5029615;28;20253;-73
2021/09/04 10:04:28;;;;;;;3.88;3.58;;;33.20;99.90;;;;;;5029200;28;20207;-73
2021/09/04 10:06:56;;;;;;;3.90;3.55;;;33.50;99.90;;;;;;5029774;28;20297;-74
2021/09/04 10:09:23;;;;;;;5.05;4.55;;;32.50;99.90;;;;;;5032846;28;20202;-74
2021/09/04 10:11:51;;;;;;;3.80;3.50;;;31.70;99.90;;;;;;5031672;28;20237;-73
2021/09/04 10:14:21;;;;;;;4.80;4.43;;;31.50;99.90;;;;;;5032375;28;20665;-74
2021/09/04 10:16:52;;;;;;;4.82;4.50;;;31.30;99.90;;;;;;5033419;28;20203;-73
2021/09/04 10:19:23;;;;;;;4.40;4.07;;;31.80;99.90;;;;;;5031612;28;20705;-73
2021/09/04 10:21:58;;;;;;;4.80;4.32;;;33.30;99.90;;;;;;5031664;28;20211;-73
2021/09/04 10:24:46;;;;;;;4.38;3.58;;;32.10;99.90;;;;;;5032892;28;20666;-74
2021/09/04 10:27:15;;;;;;;4.00;3.70;;;32.30;99.90;;;;;;5033596;28;20733;-74
2021/09/04 10:29:44;;;;;;;4.65;4.05;;;33.50;99.90;;;;;;5032868;28;20704;-74
2021/09/04 10:32:15;;;;;;;5.40;3.63;;;30.00;99.90;;;;;;5033227;28;20634;-73
2021/09/04 10:34:45;;;;;;;3.13;2.92;;;28.40;99.90;;;;;;5033269;28;20684;-74
2021/09/04 10:37:18;;;;;;;5.28;3.20;;;27.40;99.90;;;;;;5033211;28;20219;-73
2021/09/04 10:39:54;;;;;;;4.20;3.72;;;27.00;99.90;;;;;;5032895;28;20233;-73
2021/09/04 10:42:24;;;;;;;5.25;3.67;;;26.50;99.90;;;;;;5031997;28;20203;-74
2021/09/04 10:44:56;;;;;;;4.10;3.72;;;26.60;99.90;;;;;;5032676;28;20262;-74
2021/09/04 10:47:23;;;;;;;3.50;3.17;;;27.00;99.90;;;;;;5031145;28;20207;-73
2021/09/04 10:49:53;;;;;;;4.05;3.75;;;27.00;99.90;;;;;;5032766;28;20342;-73
2021/09/04 10:52:49;;;;;;;5.47;3.83;;;27.00;99.90;;;;;;5032368;28;20291;-73
2021/09/04 10:55:19;;;;;;;3.70;3.38;;;26.60;99.90;;;;;;5030273;28;20220;-74
2021/09/04 10:57:47;;;;;;;3.03;2.78;;;27.10;99.90;;;;;;5032346;28;20751;-72
2021/09/04 11:00:24;;;;;;;4.55;3.40;;;27.20;99.90;;;;;;5032735;28;20238;-72
2021/09/04 11:02:53;;;;;;;3.10;2.80;;;27.00;99.90;;;;;;5032414;28;20687;-73
2021/09/04 11:05:38;;;;;;;2.85;2.65;;;26.80;99.90;;;;;;5032202;28;20243;-73
2021/09/04 11:08:06;;;;;;;3.55;3.25;;;26.60;99.90;;;;;;5032589;28;20207;-73
2021/09/04 11:10:35;;;;;;;3.50;2.83;;;26.60;99.90;;;;;;5032372;28;20211;-71
2021/09/04 11:13:20;;;;;;;3.15;2.95;;;26.60;99.90;;;;;;5031993;28;20247;-73
2021/09/04 11:15:49;;;;;;;4.38;3.95;;;26.90;99.90;;;;;;5016150;28;20216;-74
2021/09/04 11:18:20;;;;;;;3.38;3.15;;;26.80;99.90;;;;;;5031782;28;20207;-72
2021/09/04 11:20:48;;;;;;;5.55;3.65;;;26.90;99.90;;;;;;5031413;28;20754;-74
2021/09/04 11:23:25;;;;;;;2.80;2.47;;;27.00;99.90;;;;;;5031856;28;20570;-75
2021/09/04 11:25:52;;;;;;;3.83;2.97;;;27.30;99.90;;;;;;5032414;28;20221;-73
2021/09/04 11:28:30;;;;;;;4.20;2.72;;;27.50;99.90;;;;;;5031514;28;20203;-75
2021/09/04 11:30:58;;;;;;;4.00;3.25;;;27.30;99.90;;;;;;5032104;28;20298;-74
2021/09/04 11:33:25;;;;;;;5.07;2.60;;;27.00;99.90;;;;;;5031297;28;20203;-74
2021/09/04 11:35:55;;;;;;;2.70;2.47;;;26.60;99.90;;;;;;5032496;28;20211;-75
2021/09/04 11:38:22;;;;;;;2.92;2.67;;;27.00;99.90;;;;;;5031303;28;20310;-74
2021/09/04 11:40:50;;;;;;;2.95;2.75;;;27.20;99.90;;;;;;5031776;28;21116;-75
2021/09/04 11:43:19;;;;;;;4.57;3.03;;;27.40;99.90;;;;;;5031399;28;20277;-75
2021/09/04 11:45:46;;;;;;;2.90;2.22;;;27.60;99.90;;;;;;5031036;28;20226;-75
2021/09/04 11:48:15;;;;;;;4.20;3.08;;;27.50;99.90;;;;;;5031971;28;20281;-75
2021/09/04 11:50:42;;;;;;;3.13;2.88;;;27.40;99.90;;;;;;5031883;28;20214;-75
2021/09/04 11:53:10;;;;;;;5.57;2.45;;;26.60;99.90;;;;;;5032318;28;20204;-74
2021/09/04 11:55:38;;;;;;;3.15;2.53;;;27.20;99.90;;;;;;5031101;28;20215;-74
2021/09/04 11:58:11;;;;;;;2.20;2.10;;;27.70;99.90;;;;;;5031325;28;20683;-74
2021/09/04 12:00:40;;;;;;;3.13;2.03;;;27.50;99.90;;;;;;5030754;28;20238;-73
2021/09/04 12:03:09;;;;;;;3.05;2.30;;;27.10;99.90;;;;;;5031772;28;20211;-74
2021/09/04 12:05:39;;;;;;;2.13;1.98;;;26.80;99.90;;;;;;5030879;28;20211;-74
2021/09/04 12:08:08;;;;;;;5.35;2.95;;;26.50;99.90;;;;;;5030600;28;20262;-74
2021/09/04 12:10:37;;;;;;;2.22;2.03;;;26.80;99.90;;;;;;5031089;28;20211;-75
2021/09/04 12:13:06;;;;;;;3.60;2.88;;;27.10;99.90;;;;;;5031268;28;20257;-75
2021/09/04 12:15:34;;;;;;;2.63;2.10;;;26.90;99.90;;;;;;5030580;28;20254;-75
2021/09/04 12:18:02;;;;;;;2.70;2.50;;;27.20;99.90;;;;;;5029720;28;20217;-75
2021/09/04 12:20:33;;;;;;;2.60;2.40;;;27.40;99.90;;;;;;5020795;28;20224;-74
2021/09/04 12:23:16;;;;;;;2.60;2.40;;;27.60;99.90;;;;;;5025758;28;20670;-74
2021/09/04 12:25:44;;;;;;;6.32;2.25;;;27.90;99.90;;;;;;5026390;28;20219;-74
2021/09/04 12:28:12;;;;;;;4.10;2.70;;;27.70;99.90;;;;;;5023622;28;20204;-75
2021/09/04 12:31:02;;;;;;;2.55;2.35;;;27.60;99.90;;;;;;5019968;28;20675;-74
2021/09/04 12:33:30;;;;;;;4.45;2.67;;;27.80;99.90;;;;;;5017470;28;20208;-74
2021/09/04 12:35:59;;;;;;;3.00;2.58;;;27.50;99.90;;;;;;5012011;28;20212;-74
2021/09/04 12:38:29;;;;;;;3.40;2.78;;;27.40;99.90;;;;;;5009957;28;20274;-74
2021/09/04 12:41:01;;;;;;;2.75;2.55;;;27.50;99.90;;;;;;5009362;28;20240;-75
2021/09/04 12:43:29;;;;;;;2.30;2.10;;;27.40;99.90;;;;;;5013859;28;20219;-75
2021/09/04 12:46:00;;;;;;;2.63;2.42;;;27.50;99.90;;;;;;5011463;28;20630;-73
2021/09/04 12:48:32;;;;;;;3.40;2.80;;;27.70;99.90;;;;;;5012057;28;20299;-73
2021/09/04 12:51:14;;;;;;;3.53;2.20;;;27.40;99.90;;;;;;5010763;28;20204;-75